Terminal Aerodrome Forecast
Issued by NWS

Home | Current Version | Previous Version | Text Only | Print | Product List | Glossary On
Versions: 1 2 3 4 5 6 7 8 9 10 11
000
FTUS43 KSGF 271100
TAFBBG
TAF
KBBG 271120Z 2712/2812 01007KT P6SM SKC
     FM271500 07006KT P6SM BKN080 OVC150
     FM272300 10005KT P6SM OVC050=

USA.gov is the U.S. government's official web portal to all federal, state and local government web resources and services.